Aviation Digital Data Service (ADDS)

Output produced by METARs form (1824 UTC 24 June 2018)
found at http://aviationweather.gov/adds/metars/
 
KPGV 241725Z 2418/2518 25010KT P6SM VCTS SCT060CB 
     FM250800 26006KT P6SM SCT070 AMD LTD TO CLD VIS AND WIND